createdAt,value
2023-01-19T07:21:55.262Z,97585.09
2023-01-19T07:35:32.641Z,97585.13
2023-01-19T07:40:43.148Z,97586.28
2023-01-19T07:43:11.406Z,97591.78
2023-01-19T07:45:42.038Z,97599.88
2023-01-19T07:48:11.634Z,97583.69
2023-01-19T07:50:41.481Z,97575.94
2023-01-19T07:53:13.046Z,97569.13
2023-01-19T07:58:16.318Z,97594.16
2023-01-19T08:00:45.137Z,97595.78
2023-01-19T08:03:19.621Z,97589.53
2023-01-19T08:05:54.019Z,97596.13
2023-01-19T08:08:22.823Z,97594.72
2023-01-19T08:11:00.662Z,97597.44
2023-01-19T08:13:32.456Z,97613.16
2023-01-19T08:16:03.099Z,97613.16
2023-01-19T08:18:31.927Z,97607.75
2023-01-19T08:21:01.468Z,97609.63
2023-01-19T08:23:29.922Z,97614.94
2023-01-19T08:26:02.190Z,97612.25
2023-01-19T08:28:31.237Z,97616.34
2023-01-19T08:31:05.330Z,97614.69
2023-01-19T08:33:47.062Z,97620.69
2023-01-19T08:36:19.931Z,97625.50
2023-01-19T08:38:52.609Z,97637.47
2023-01-19T08:41:24.394Z,97633.59
2023-01-19T08:43:54.744Z,97644.75
2023-01-19T08:46:22.791Z,97629.63
2023-01-19T08:48:52.580Z,97626.94
2023-01-19T08:51:24.349Z,97613.63
2023-01-19T08:59:09.873Z,97621.59
2023-01-19T09:01:47.137Z,97619.38
2023-01-19T09:04:18.155Z,97621.97
2023-01-19T09:09:31.757Z,97622.44
2023-01-19T09:12:00.036Z,97621.59
2023-01-19T09:14:27.513Z,97616.69
2023-01-19T09:19:50.251Z,97617.38
2023-01-19T09:22:17.593Z,97618.69
2023-01-19T09:24:45.176Z,97623.59
2023-01-19T09:32:50.559Z,97620.53
2023-01-19T09:37:55.395Z,97614.41
2023-01-19T09:40:22.736Z,97607.47
2023-01-19T09:42:59.802Z,97610.19
2023-01-19T09:45:40.301Z,97607.38
2023-01-19T09:48:44.546Z,97606.66
2023-01-19T10:52:00.016Z,97625.28
2023-01-19T10:54:30.818Z,97615.53
2023-01-19T11:08:01.884Z,97611.38
2023-01-19T11:10:31.078Z,97608.78
2023-01-19T11:13:12.774Z,97612.06
2023-01-19T11:16:04.657Z,97600.81
2023-01-19T11:18:39.849Z,97610.41
2023-01-19T11:21:18.530Z,97597.03
2023-01-19T11:23:55.707Z,97606.97
2023-01-19T11:26:48.524Z,97608.69
2023-01-19T11:29:24.357Z,97603.03
2023-01-19T11:31:55.772Z,97607.00
2023-01-19T11:34:36.663Z,97592.72
2023-01-19T11:37:31.612Z,97604.38
2023-01-19T11:40:03.321Z,97596.97
2023-01-19T11:42:34.043Z,97594.97
2023-01-19T11:45:04.338Z,97600.22
2023-01-19T11:47:44.552Z,97598.00
2023-01-19T11:56:23.515Z,97613.56
2023-01-19T11:58:52.566Z,97612.44
2023-01-19T12:01:45.380Z,97622.41
2023-01-19T12:04:24.059Z,97610.28
2023-01-19T12:06:56.788Z,97618.84
2023-01-19T12:09:42.979Z,97624.81
2023-01-19T12:12:42.651Z,97622.59
2023-01-19T12:15:30.490Z,97621.84
2023-01-19T12:18:04.020Z,97623.06
2023-01-19T12:20:52.983Z,97628.81
2023-01-19T12:23:47.045Z,97635.06
2023-01-19T12:26:22.250Z,97630.88
2023-01-19T13:40:48.601Z,97712.25
2023-01-19T13:46:21.043Z,97707.19
2023-01-19T13:52:41.308Z,97722.88
2023-01-19T13:58:32.889Z,97722.00
